Time;durP1;ratioP1;P1;durP2;ratioP2;P2;SDS_P1;SDS_P2;PMS_P1;PMS_P2;Temp;Humidity;BMP_temperature;BMP_pressure;BME280_temperature;BME280_humidity;BME280_pressure;Samples;Min_cycle;Max_cycle;Signal;HPM_P1;HPM_P2
2021/06/11 00:00:47;;;;;;;42.13;26.88;;;14.30;99.90;;;;;;5072958;28;20452;-73
2021/06/11 00:03:12;;;;;;;38.65;25.55;;;14.20;99.90;;;;;;5073172;28;20025;-73
2021/06/11 00:05:38;;;;;;;33.55;24.27;;;14.10;99.90;;;;;;5055057;28;20024;-73
2021/06/11 00:08:05;;;;;;;35.83;23.45;;;14.20;99.90;;;;;;5073171;28;20040;-73
2021/06/11 00:10:30;;;;;;;36.92;23.77;;;14.10;99.90;;;;;;5054555;28;20029;-74
2021/06/11 00:12:58;;;;;;;31.25;23.25;;;14.20;99.90;;;;;;5055132;28;20021;-75
2021/06/11 00:15:24;;;;;;;38.35;24.48;;;14.30;99.90;;;;;;5072512;28;20402;-72
2021/06/11 00:17:50;;;;;;;38.92;24.25;;;14.30;99.90;;;;;;5073091;28;20029;-74
2021/06/11 00:20:18;;;;;;;36.33;23.30;;;14.20;99.90;;;;;;5071925;28;20155;-72
2021/06/11 00:22:45;;;;;;;29.02;20.88;;;14.30;99.90;;;;;;5072896;28;20029;-72
2021/06/11 00:25:13;;;;;;;28.52;20.77;;;14.30;99.90;;;;;;5054707;28;20478;-74
2021/06/11 00:27:38;;;;;;;37.47;22.35;;;14.30;99.90;;;;;;5072591;28;20016;-74
2021/06/11 00:30:06;;;;;;;34.78;21.95;;;14.30;99.90;;;;;;5071999;28;20790;-74
2021/06/11 00:32:32;;;;;;;78.63;25.33;;;14.30;99.90;;;;;;5072654;28;20082;-74
2021/06/11 00:34:57;;;;;;;52.42;22.95;;;14.40;99.90;;;;;;5072266;28;20454;-73
2021/06/11 00:37:23;;;;;;;28.33;21.23;;;14.40;99.90;;;;;;5072424;28;20038;-73
2021/06/11 00:39:49;;;;;;;29.95;20.88;;;14.10;99.90;;;;;;5071965;28;20074;-74
2021/06/11 00:42:14;;;;;;;31.17;21.13;;;14.00;99.90;;;;;;5072323;28;20051;-74
2021/06/11 00:44:40;;;;;;;26.23;19.85;;;13.90;99.90;;;;;;5072534;28;20099;-74
2021/06/11 00:47:06;;;;;;;28.15;20.90;;;13.90;99.90;;;;;;5072204;28;20510;-74
2021/06/11 00:49:31;;;;;;;27.75;20.20;;;14.00;99.90;;;;;;5071728;28;20020;-74
2021/06/11 00:51:58;;;;;;;27.63;18.50;;;14.00;99.90;;;;;;5071873;28;20040;-72
2021/06/11 00:54:24;;;;;;;35.95;20.08;;;13.90;99.90;;;;;;5073834;28;20040;-72
2021/06/11 00:56:50;;;;;;;28.70;21.33;;;14.00;99.90;;;;;;5076359;28;20024;-73
2021/06/11 00:59:17;;;;;;;28.65;19.63;;;14.10;99.90;;;;;;5075631;28;20041;-74
2021/06/11 01:01:43;;;;;;;28.10;19.50;;;14.10;99.90;;;;;;5071435;28;20056;-73
2021/06/11 01:04:10;;;;;;;25.67;19.67;;;14.00;99.90;;;;;;5053074;28;20110;-74
2021/06/11 01:06:39;;;;;;;22.60;18.20;;;13.90;99.90;;;;;;5071448;28;20017;-73
2021/06/11 01:09:06;;;;;;;113.95;18.65;;;13.80;99.90;;;;;;5072000;28;20497;-73
2021/06/11 01:11:32;;;;;;;23.55;18.38;;;13.60;99.90;;;;;;5071070;28;20035;-74
2021/06/11 01:13:58;;;;;;;38.42;18.88;;;13.80;99.90;;;;;;5073177;28;20095;-73
2021/06/11 01:16:24;;;;;;;57.15;17.60;;;13.80;99.90;;;;;;5072726;28;20025;-74
2021/06/11 01:18:50;;;;;;;39.90;15.85;;;13.60;99.90;;;;;;5081933;28;20043;-72
2021/06/11 01:21:18;;;;;;;69.78;18.08;;;13.40;99.90;;;;;;5055261;28;20395;-73
2021/06/11 01:24:00;;;;;;;65.95;15.85;;;13.30;99.90;;;;;;5073232;28;20025;-72
2021/06/11 01:26:50;;;;;;;33.28;16.95;;;13.20;99.90;;;;;;5072781;28;20020;-72
2021/06/11 01:29:26;;;;;;;18.88;16.23;;;13.10;99.90;;;;;;5071549;28;20119;-72
2021/06/11 01:31:56;;;;;;;32.83;18.95;;;13.10;99.90;;;;;;5053555;28;20031;-74
2021/06/11 01:34:26;;;;;;;65.13;22.20;;;13.30;99.90;;;;;;5071463;28;20031;-73
2021/06/11 01:37:01;;;;;;;68.05;21.83;;;13.50;99.90;;;;;;5071089;28;20518;-73
2021/06/11 01:39:29;;;;;;;144.45;22.65;;;13.50;99.90;;;;;;5052930;28;20029;-75
2021/06/11 01:41:57;;;;;;;24.98;20.45;;;13.50;99.90;;;;;;5069204;28;20024;-73
2021/06/11 01:44:25;;;;;;;94.05;20.25;;;13.50;99.90;;;;;;5071454;28;20067;-73
2021/06/11 01:46:57;;;;;;;33.92;20.65;;;13.40;99.90;;;;;;5070998;28;20036;-73
2021/06/11 01:49:25;;;;;;;96.20;19.85;;;13.40;99.90;;;;;;5070683;28;20355;-74
2021/06/11 01:51:53;;;;;;;48.40;20.13;;;13.40;99.90;;;;;;5070690;28;20121;-73
2021/06/11 01:54:19;;;;;;;77.18;22.70;;;13.50;99.90;;;;;;5071268;28;20099;-74
2021/06/11 01:56:45;;;;;;;33.72;22.75;;;13.60;99.90;;;;;;5071108;28;20509;-74
2021/06/11 01:59:12;;;;;;;64.80;25.58;;;13.70;99.90;;;;;;5053374;28;20113;-72
2021/06/11 02:01:38;;;;;;;31.35;24.08;;;13.80;99.90;;;;;;5070300;28;20386;-72
2021/06/11 02:04:05;;;;;;;61.92;24.90;;;13.90;99.90;;;;;;5071175;28;20024;-74
2021/06/11 02:06:31;;;;;;;28.65;22.13;;;13.90;99.90;;;;;;5070873;28;20482;-75
2021/06/11 02:08:57;;;;;;;27.30;18.30;;;13.90;99.90;;;;;;5071320;28;20055;-72
2021/06/11 02:11:23;;;;;;;22.00;17.88;;;13.70;99.90;;;;;;5071340;28;20017;-74
2021/06/11 02:13:52;;;;;;;21.08;17.65;;;13.50;99.90;;;;;;5071380;28;20031;-72
2021/06/11 02:16:20;;;;;;;86.82;17.50;;;13.50;99.90;;;;;;5074678;28;20036;-72
2021/06/11 02:18:46;;;;;;;83.38;17.30;;;13.30;99.90;;;;;;5075290;28;20072;-74
2021/06/11 02:21:14;;;;;;;62.97;15.93;;;13.10;99.90;;;;;;5074237;28;20084;-73
2021/06/11 02:23:40;;;;;;;24.45;14.50;;;13.10;99.90;;;;;;5075027;28;20781;-74
2021/06/11 02:26:10;;;;;;;35.42;15.90;;;12.90;99.90;;;;;;5074823;28;20505;-73
2021/06/11 02:28:36;;;;;;;16.92;15.23;;;12.90;99.90;;;;;;5074819;28;20028;-73
2021/06/11 02:31:02;;;;;;;18.45;16.50;;;12.90;99.90;;;;;;5056411;28;20024;-73
2021/06/11 02:33:28;;;;;;;29.42;21.17;;;13.00;99.90;;;;;;5056899;28;20029;-72
2021/06/11 02:35:55;;;;;;;21.33;17.95;;;13.10;99.90;;;;;;5074504;28;20032;-73
2021/06/11 02:38:21;;;;;;;23.92;18.70;;;13.20;99.90;;;;;;5056727;28;20020;-73
2021/06/11 02:40:48;;;;;;;18.98;16.98;;;13.20;99.90;;;;;;5085751;28;20192;-74
2021/06/11 02:43:15;;;;;;;24.63;20.15;;;13.10;99.90;;;;;;5098299;28;20004;-73
2021/06/11 02:45:49;;;;;;;21.17;18.48;;;13.20;99.90;;;;;;5085256;28;20033;-73
2021/06/11 02:48:40;;;;;;;21.90;17.85;;;13.20;99.90;;;;;;5084206;22;20343;-75
2021/06/11 02:51:32;;;;;;;34.75;20.17;;;12.90;99.90;;;;;;5087047;28;20036;-75
2021/06/11 02:54:00;;;;;;;24.42;18.13;;;13.00;99.90;;;;;;5082226;28;20036;-74
2021/06/11 02:56:41;;;;;;;24.15;19.30;;;13.00;99.90;;;;;;5094908;28;20028;-75
2021/06/11 02:59:39;;;;;;;25.33;18.98;;;13.00;99.90;;;;;;5082471;28;20017;-76
2021/06/11 03:02:13;;;;;;;24.88;20.38;;;13.00;99.90;;;;;;5069599;28;20040;-75
2021/06/11 03:04:44;;;;;;;27.63;19.20;;;13.00;99.90;;;;;;5073218;28;20017;-75
2021/06/11 03:07:16;;;;;;;34.70;20.98;;;13.10;99.90;;;;;;5073084;28;20024;-75
2021/06/11 03:09:42;;;;;;;20.00;17.42;;;13.10;99.90;;;;;;5072437;28;20406;-75
2021/06/11 03:12:10;;;;;;;37.83;17.23;;;13.10;99.90;;;;;;5074264;28;20028;-75
2021/06/11 03:14:36;;;;;;;104.38;19.88;;;13.00;99.90;;;;;;5074092;28;20165;-75
2021/06/11 03:17:04;;;;;;;18.80;16.38;;;13.00;99.90;;;;;;5074051;28;20017;-75
2021/06/11 03:19:34;;;;;;;19.48;15.35;;;13.00;99.90;;;;;;5073117;28;20017;-75
2021/06/11 03:22:04;;;;;;;24.05;16.27;;;12.90;99.90;;;;;;5073109;28;20024;-75
2021/06/11 03:24:36;;;;;;;22.75;16.23;;;12.90;99.90;;;;;;5075629;28;20079;-74
2021/06/11 03:27:15;;;;;;;19.67;15.32;;;12.90;99.90;;;;;;5072011;28;20486;-74
2021/06/11 03:30:08;;;;;;;79.75;18.60;;;12.90;99.90;;;;;;5072333;28;20032;-75
2021/06/11 03:32:42;;;;;;;58.15;19.58;;;13.10;99.90;;;;;;5072959;28;20429;-75
2021/06/11 03:35:18;;;;;;;46.25;20.50;;;12.90;99.90;;;;;;5073503;28;20021;-74
2021/06/11 03:37:51;;;;;;;34.85;21.20;;;12.90;99.90;;;;;;5073881;28;20028;-75
2021/06/11 03:40:28;;;;;;;68.88;30.40;;;12.90;99.90;;;;;;5071081;28;20131;-75
2021/06/11 03:42:55;;;;;;;96.40;40.40;;;12.90;99.90;;;;;;5073792;28;20648;-75
2021/06/11 03:45:22;;;;;;;54.75;32.33;;;13.00;99.90;;;;;;5072239;28;20082;-75
2021/06/11 03:47:49;;;;;;;28.23;19.17;;;13.00;99.90;;;;;;5073680;28;20025;-76
2021/06/11 03:50:21;;;;;;;43.53;16.63;;;12.90;99.90;;;;;;5065081;28;20042;-75
2021/06/11 03:52:49;;;;;;;60.20;17.15;;;12.70;99.90;;;;;;5075286;28;20032;-72
2021/06/11 03:55:24;;;;;;;16.35;14.27;;;12.80;99.90;;;;;;5071852;28;20031;-72
2021/06/11 03:57:57;;;;;;;71.68;16.52;;;12.80;99.90;;;;;;5073376;28;20016;-73
2021/06/11 04:00:25;;;;;;;38.90;15.20;;;13.00;99.90;;;;;;5070862;28;20031;-72
2021/06/11 04:02:50;;;;;;;20.92;14.98;;;13.10;99.90;;;;;;5072716;28;20028;-73
2021/06/11 04:05:16;;;;;;;42.67;14.75;;;13.20;99.90;;;;;;5071788;28;20035;-72
2021/06/11 04:07:54;;;;;;;22.02;14.45;;;13.30;99.90;;;;;;5073039;28;20024;-72
2021/06/11 04:10:45;;;;;;;15.65;12.70;;;13.40;99.90;;;;;;5072139;28;20482;-71
2021/06/11 04:13:18;;;;;;;25.42;12.00;;;13.50;99.90;;;;;;5065612;28;20044;-71
2021/06/11 04:15:48;;;;;;;26.33;11.75;;;13.50;99.90;;;;;;5072737;28;20025;-71
2021/06/11 04:18:27;;;;;;;17.67;11.15;;;13.60;99.90;;;;;;5072991;28;20020;-71
2021/06/11 04:20:57;;;;;;;12.82;11.63;;;13.60;99.90;;;;;;5071765;28;20091;-71
2021/06/11 04:23:26;;;;;;;30.73;12.95;;;13.60;99.90;;;;;;5072857;28;20024;-72
2021/06/11 04:25:55;;;;;;;19.70;13.43;;;13.70;99.90;;;;;;5073036;28;20081;-73
2021/06/11 04:28:23;;;;;;;12.32;11.23;;;13.70;99.90;;;;;;5072553;28;20024;-71
2021/06/11 04:30:51;;;;;;;34.15;12.32;;;13.60;99.90;;;;;;5071451;28;20090;-71
2021/06/11 04:33:22;;;;;;;11.63;10.52;;;13.60;99.90;;;;;;5072672;28;20482;-72
2021/06/11 04:35:49;;;;;;;15.20;11.23;;;13.60;99.90;;;;;;5071199;28;20074;-70
2021/06/11 04:38:16;;;;;;;36.08;13.00;;;13.60;99.90;;;;;;5072273;28;20386;-73
2021/06/11 04:40:42;;;;;;;16.90;13.40;;;13.70;99.90;;;;;;5071516;28;20024;-72
2021/06/11 04:43:08;;;;;;;13.80;12.50;;;13.70;99.90;;;;;;5072199;28;20035;-71
2021/06/11 04:45:38;;;;;;;19.23;11.52;;;13.80;99.90;;;;;;5072203;28;20086;-74
2021/06/11 04:48:04;;;;;;;12.55;11.45;;;13.90;99.90;;;;;;5072007;28;20052;-71
2021/06/11 04:50:30;;;;;;;11.73;10.68;;;13.90;99.90;;;;;;5071488;28;20024;-71
2021/06/11 04:52:56;;;;;;;10.65;9.55;;;13.90;99.90;;;;;;5072421;28;20029;-75
2021/06/11 04:55:22;;;;;;;10.95;9.70;;;13.90;99.90;;;;;;5072315;28;20473;-75
2021/06/11 04:57:50;;;;;;;9.95;8.90;;;13.70;99.90;;;;;;5072509;28;20020;-74
2021/06/11 05:00:16;;;;;;;30.88;9.38;;;13.60;99.90;;;;;;5071445;28;20466;-75
2021/06/11 05:02:41;;;;;;;81.65;11.90;;;13.50;99.90;;;;;;5071722;28;20042;-74
2021/06/11 05:05:08;;;;;;;25.52;11.30;;;13.80;99.90;;;;;;5071390;28;20119;-76
2021/06/11 05:07:35;;;;;;;36.50;11.32;;;13.90;99.90;;;;;;5072712;28;20059;-75
2021/06/11 05:10:01;;;;;;;12.77;9.65;;;14.10;99.90;;;;;;5071488;28;20077;-75
2021/06/11 05:12:27;;;;;;;15.88;9.25;;;14.00;99.90;;;;;;5071376;28;20020;-74
2021/06/11 05:14:53;;;;;;;9.90;8.90;;;13.90;99.90;;;;;;5072080;28;20035;-75
2021/06/11 05:17:18;;;;;;;12.75;9.18;;;13.70;99.90;;;;;;5071893;28;20441;-74
2021/06/11 05:19:44;;;;;;;9.48;8.48;;;13.60;99.90;;;;;;5071319;28;20078;-73
2021/06/11 05:22:10;;;;;;;9.95;9.05;;;13.70;99.90;;;;;;5071628;28;20371;-74
2021/06/11 05:24:35;;;;;;;10.80;9.80;;;13.70;99.90;;;;;;5072052;28;20032;-78
2021/06/11 05:27:01;;;;;;;10.95;8.82;;;13.80;99.90;;;;;;5073233;28;20154;-78
2021/06/11 05:29:26;;;;;;;11.27;7.78;;;13.60;99.90;;;;;;5080150;28;20076;-75
2021/06/11 05:31:52;;;;;;;9.55;8.65;;;13.60;99.90;;;;;;5087796;28;20036;-76
2021/06/11 05:34:18;;;;;;;9.80;8.82;;;14.00;99.90;;;;;;5074412;28;20115;-76
2021/06/11 05:36:43;;;;;;;13.18;8.60;;;14.30;99.90;;;;;;5073364;28;20082;-76
2021/06/11 05:39:09;;;;;;;9.52;8.73;;;14.40;99.90;;;;;;5070842;28;20066;-76
2021/06/11 05:41:35;;;;;;;11.00;8.38;;;14.30;99.90;;;;;;5069936;28;20494;-76
2021/06/11 05:44:00;;;;;;;8.90;8.20;;;14.40;99.90;;;;;;5072217;28;20103;-74
2021/06/11 05:46:26;;;;;;;8.80;7.97;;;14.40;99.90;;;;;;5071682;28;20024;-75
2021/06/11 05:48:52;;;;;;;8.80;7.90;;;14.50;99.90;;;;;;5070216;28;20036;-76
2021/06/11 05:51:18;;;;;;;8.35;7.65;;;14.60;99.90;;;;;;5071640;28;20024;-77
2021/06/11 05:53:43;;;;;;;11.02;8.82;;;14.50;99.90;;;;;;5073315;28;20079;-76
2021/06/11 05:56:12;;;;;;;8.98;8.07;;;14.50;99.90;;;;;;5072712;28;20025;-77
2021/06/11 05:58:39;;;;;;;9.20;8.27;;;14.30;99.90;;;;;;5062285;28;20082;-75
2021/06/11 06:01:06;;;;;;;11.27;10.18;;;14.30;99.90;;;;;;5068617;28;20016;-78
2021/06/11 06:03:32;;;;;;;11.80;9.32;;;14.70;99.90;;;;;;5070163;28;20031;-77
2021/06/11 06:05:58;;;;;;;9.48;8.43;;;14.60;99.90;;;;;;5070192;28;20029;-76
2021/06/11 06:08:23;;;;;;;10.57;9.48;;;14.60;99.90;;;;;;5070105;28;20512;-77
2021/06/11 06:10:49;;;;;;;10.40;9.50;;;14.60;99.90;;;;;;5063731;28;20031;-75
2021/06/11 06:13:15;;;;;;;10.80;9.80;;;14.40;99.90;;;;;;5068238;28;20032;-76
2021/06/11 06:15:42;;;;;;;11.73;10.70;;;14.50;99.90;;;;;;5065089;28;20017;-74
2021/06/11 06:18:08;;;;;;;11.93;10.77;;;14.40;99.90;;;;;;5064368;28;20025;-75
2021/06/11 06:20:34;;;;;;;12.35;11.15;;;14.60;99.90;;;;;;5055703;28;20031;-74
2021/06/11 06:23:00;;;;;;;11.38;10.38;;;14.60;99.90;;;;;;5068011;28;20038;-75
2021/06/11 06:25:25;;;;;;;13.48;11.07;;;14.60;99.90;;;;;;5070647;28;20544;-75
2021/06/11 06:27:51;;;;;;;11.38;10.23;;;14.90;99.90;;;;;;5070271;28;20036;-76
2021/06/11 06:30:18;;;;;;;11.82;10.80;;;14.90;99.90;;;;;;5070149;28;20112;-76
2021/06/11 06:32:43;;;;;;;13.02;11.13;;;14.90;99.90;;;;;;5070908;28;20025;-75
2021/06/11 06:35:11;;;;;;;11.85;10.65;;;15.00;99.90;;;;;;5071988;28;20028;-77
2021/06/11 06:37:37;;;;;;;10.98;10.00;;;15.00;99.90;;;;;;5067206;28;20024;-76
2021/06/11 06:40:04;;;;;;;11.52;10.20;;;15.10;99.90;;;;;;5051989;28;20432;-76
2021/06/11 06:42:30;;;;;;;11.82;10.70;;;14.90;99.90;;;;;;5051990;28;20035;-76
2021/06/11 06:44:56;;;;;;;11.57;10.40;;;15.10;99.90;;;;;;5051783;28;20021;-76
2021/06/11 06:47:21;;;;;;;10.13;9.30;;;15.20;99.90;;;;;;5051647;28;20690;-75
2021/06/11 06:49:47;;;;;;;11.32;10.32;;;15.50;99.90;;;;;;5050183;28;20040;-74
2021/06/11 06:52:14;;;;;;;11.85;10.10;;;15.60;99.90;;;;;;5050246;28;20029;-74
2021/06/11 06:54:42;;;;;;;12.73;10.00;;;15.70;99.90;;;;;;5050964;28;20017;-74
2021/06/11 06:57:08;;;;;;;11.07;9.98;;;15.90;99.90;;;;;;5051039;28;20018;-75
2021/06/11 06:59:34;;;;;;;11.23;10.07;;;16.00;99.90;;;;;;5049228;28;20629;-76
2021/06/11 07:02:00;;;;;;;11.68;10.48;;;16.10;99.90;;;;;;5053341;28;20039;-75
2021/06/11 07:04:27;;;;;;;11.15;10.07;;;16.20;99.90;;;;;;5053962;28;20095;-74
2021/06/11 07:06:52;;;;;;;11.07;10.07;;;16.30;99.90;;;;;;5075072;28;20036;-76
2021/06/11 07:09:20;;;;;;;12.45;11.15;;;16.40;99.90;;;;;;5075221;28;20082;-76
2021/06/11 07:11:51;;;;;;;10.15;9.25;;;16.80;99.90;;;;;;5074987;28;20028;-74
2021/06/11 07:14:18;;;;;;;11.85;10.63;;;17.00;99.90;;;;;;5075744;28;20054;-77
2021/06/11 07:16:44;;;;;;;11.15;10.15;;;17.00;99.90;;;;;;5075952;28;20024;-76
2021/06/11 07:19:10;;;;;;;12.05;10.95;;;16.90;99.90;;;;;;5076224;28;20021;-76
2021/06/11 07:21:36;;;;;;;10.95;9.80;;;17.20;99.90;;;;;;5075282;28;20390;-76
2021/06/11 07:24:02;;;;;;;12.38;9.77;;;17.50;99.90;;;;;;5076609;28;20132;-76
2021/06/11 07:26:27;;;;;;;10.40;9.32;;;17.50;99.90;;;;;;5074741;28;20474;-75
2021/06/11 07:28:53;;;;;;;12.57;10.18;;;17.60;99.90;;;;;;5074087;28;20025;-75
2021/06/11 07:31:20;;;;;;;11.07;10.18;;;17.60;99.90;;;;;;5073826;28;20105;-76
2021/06/11 07:33:46;;;;;;;10.95;9.85;;;17.80;99.90;;;;;;5075854;28;20103;-76
2021/06/11 07:36:12;;;;;;;11.63;10.43;;;17.80;99.90;;;;;;5078562;28;20028;-76
2021/06/11 07:38:38;;;;;;;10.73;9.73;;;18.00;99.90;;;;;;5076792;28;20088;-75
2021/06/11 07:41:05;;;;;;;11.15;10.13;;;18.00;99.90;;;;;;5071973;28;20051;-75
2021/06/11 07:43:30;;;;;;;10.70;9.60;;;18.30;99.90;;;;;;5077203;28;20482;-77
2021/06/11 07:45:56;;;;;;;10.70;9.70;;;18.60;99.90;;;;;;5074528;28;20120;-76
2021/06/11 07:48:22;;;;;;;10.88;9.98;;;18.60;99.90;;;;;;5074410;28;20068;-76
2021/06/11 07:50:48;;;;;;;11.30;9.82;;;18.80;99.90;;;;;;5076086;28;20103;-76
2021/06/11 07:53:14;;;;;;;10.27;9.40;;;18.90;99.90;;;;;;5073979;28;20032;-74
2021/06/11 07:55:40;;;;;;;12.57;9.63;;;19.10;99.90;;;;;;5073116;28;20503;-74
2021/06/11 07:58:06;;;;;;;10.25;9.27;;;19.50;99.90;;;;;;5073168;28;20044;-77
2021/06/11 08:00:32;;;;;;;13.23;9.90;;;19.30;99.90;;;;;;5072583;28;20054;-77
2021/06/11 08:02:59;;;;;;;10.25;9.30;;;19.30;99.90;;;;;;5075086;28;20039;-76
2021/06/11 08:05:26;;;;;;;11.32;10.30;;;19.40;99.90;;;;;;5070422;28;20016;-77
2021/06/11 08:07:53;;;;;;;11.70;10.60;;;19.90;99.90;;;;;;5074345;28;20494;-77
2021/06/11 08:10:19;;;;;;;11.18;10.23;;;20.00;99.90;;;;;;5074091;28;20032;-76
2021/06/11 08:12:46;;;;;;;11.02;10.02;;;20.10;99.90;;;;;;5072772;28;20033;-77
2021/06/11 08:15:12;;;;;;;12.30;9.77;;;20.40;99.90;;;;;;5072528;28;20523;-76
2021/06/11 08:17:38;;;;;;;11.50;10.52;;;20.70;99.90;;;;;;5071399;28;20048;-77
2021/06/11 08:20:06;;;;;;;10.77;9.77;;;21.20;99.90;;;;;;5070838;28;20021;-76
2021/06/11 08:22:32;;;;;;;10.65;9.55;;;21.60;99.90;;;;;;5072639;28;20132;-75
2021/06/11 08:24:58;;;;;;;11.02;10.10;;;21.40;99.90;;;;;;5072611;28;20099;-75
2021/06/11 08:27:23;;;;;;;10.45;9.27;;;21.50;99.90;;;;;;5072983;28;20096;-75
2021/06/11 08:29:49;;;;;;;10.52;9.52;;;21.70;99.90;;;;;;5071783;28;20020;-75
2021/06/11 08:32:15;;;;;;;10.43;9.52;;;22.10;99.90;;;;;;5072066;28;20478;-74
2021/06/11 08:34:43;;;;;;;10.35;9.30;;;22.00;99.90;;;;;;5071742;28;20363;-75
2021/06/11 08:37:09;;;;;;;11.73;9.73;;;22.00;99.90;;;;;;5071127;28;20031;-76
2021/06/11 08:39:35;;;;;;;9.77;8.98;;;21.80;99.90;;;;;;5071855;28;20452;-73
2021/06/11 08:42:01;;;;;;;9.15;8.35;;;21.70;99.90;;;;;;5072724;28;20127;-75
2021/06/11 08:44:27;;;;;;;10.13;8.05;;;21.90;99.90;;;;;;5072617;28;20037;-74
2021/06/11 08:46:54;;;;;;;11.10;8.70;;;22.60;99.90;;;;;;5073987;28;20094;-76
2021/06/11 08:51:59;;;;;;;9.27;8.38;;;22.90;99.90;;;;;;5040223;28;20045;-75
2021/06/11 08:54:26;;;;;;;10.35;7.97;;;23.00;99.90;;;;;;5047500;28;20025;-74
2021/06/11 08:56:53;;;;;;;7.28;6.60;;;22.90;99.90;;;;;;5032273;28;20053;-75
2021/06/11 08:59:19;;;;;;;8.45;6.57;;;23.50;99.90;;;;;;5032560;28;20029;-75
2021/06/11 09:01:45;;;;;;;7.55;6.95;;;24.50;99.90;;;;;;5032168;28;20105;-74
2021/06/11 09:04:10;;;;;;;6.53;5.93;;;25.30;99.90;;;;;;5032087;28;20232;-71
2021/06/11 09:06:36;;;;;;;7.22;6.25;;;25.70;99.90;;;;;;5045744;28;20031;-72
2021/06/11 09:09:05;;;;;;;7.72;7.03;;;25.70;99.90;;;;;;5051935;28;20063;-71
2021/06/11 09:11:36;;;;;;;8.27;7.00;;;25.50;99.90;;;;;;5051107;28;20017;-70
2021/06/11 09:14:03;;;;;;;7.18;6.50;;;24.80;99.90;;;;;;5051844;28;20021;-71
2021/06/11 09:16:40;;;;;;;6.93;6.28;;;24.40;99.90;;;;;;5051793;28;20021;-71
2021/06/11 09:19:06;;;;;;;8.88;6.85;;;24.40;99.90;;;;;;5051573;28;20025;-71
2021/06/11 09:21:44;;;;;;;6.80;6.30;;;24.80;99.90;;;;;;5050826;28;20155;-73
2021/06/11 09:24:17;;;;;;;8.18;6.22;;;25.30;99.90;;;;;;5051007;28;20471;-72
2021/06/11 09:27:11;;;;;;;6.55;6.05;;;25.40;99.90;;;;;;5051554;28;20024;-72
2021/06/11 09:29:42;;;;;;;7.18;6.65;;;26.00;99.90;;;;;;5050812;28;20095;-71
2021/06/11 09:32:44;;;;;;;6.80;6.20;;;26.40;99.90;;;;;;5051108;28;20578;-72
2021/06/11 09:35:10;;;;;;;6.85;6.35;;;27.40;99.90;;;;;;5037575;28;20033;-71
2021/06/11 09:37:39;;;;;;;10.55;7.07;;;27.20;99.90;;;;;;5034246;28;20028;-71
2021/06/11 09:40:13;;;;;;;6.60;6.05;;;27.80;99.90;;;;;;5050554;28;20475;-71
2021/06/11 09:42:46;;;;;;;8.20;7.50;;;27.50;99.90;;;;;;5051431;28;20036;-71
2021/06/11 09:45:27;;;;;;;8.80;6.32;;;27.60;99.90;;;;;;5007507;28;20041;-71
2021/06/11 09:47:53;;;;;;;7.82;6.60;;;27.50;99.90;;;;;;5051670;28;20099;-71
2021/06/11 09:50:37;;;;;;;7.20;6.55;;;27.90;99.90;;;;;;5050000;28;20486;-72
2021/06/11 09:53:04;;;;;;;6.70;6.10;;;28.10;99.90;;;;;;5034677;28;20493;-71
2021/06/11 09:55:36;;;;;;;7.40;6.63;;;28.50;99.90;;;;;;5055814;28;20104;-71
2021/06/11 09:58:06;;;;;;;8.40;6.88;;;28.30;98.30;;;;;;5056950;28;20032;-71
2021/06/11 10:00:34;;;;;;;8.30;7.63;;;27.60;99.30;;;;;;5057029;28;20378;-71
2021/06/11 10:03:00;;;;;;;7.30;6.57;;;27.30;99.90;;;;;;5053726;28;20452;-71
2021/06/11 10:05:27;;;;;;;9.73;8.70;;;27.50;99.90;;;;;;5052181;28;20025;-71
2021/06/11 10:07:54;;;;;;;9.38;7.63;;;27.00;98.10;;;;;;5051760;28;20422;-70
2021/06/11 10:10:20;;;;;;;9.32;8.25;;;27.00;99.30;;;;;;5050668;28;20035;-71
2021/06/11 10:12:47;;;;;;;9.00;8.15;;;27.20;99.90;;;;;;5051215;28;20400;-70
2021/06/11 10:15:14;;;;;;;11.80;8.77;;;27.90;98.00;;;;;;5051048;28;20021;-70
2021/06/11 10:17:43;;;;;;;8.88;8.07;;;27.70;97.10;;;;;;5050753;28;20028;-72
2021/06/11 10:20:10;;;;;;;7.65;7.05;;;27.10;97.40;;;;;;5049797;28;20036;-72
2021/06/11 10:22:37;;;;;;;8.82;7.50;;;27.30;98.80;;;;;;5048975;28;20021;-69
2021/06/11 10:25:05;;;;;;;8.55;7.60;;;27.20;96.20;;;;;;5045725;28;20079;-72
2021/06/11 10:27:31;;;;;;;8.07;6.90;;;28.00;96.60;;;;;;5051591;28;20429;-72
2021/06/11 10:29:57;;;;;;;8.63;7.72;;;28.60;96.10;;;;;;5050425;28;20079;-72
2021/06/11 10:32:23;;;;;;;7.57;6.97;;;28.70;94.50;;;;;;5068934;28;20025;-72
2021/06/11 10:34:54;;;;;;;7.75;6.60;;;29.00;95.50;;;;;;5070013;28;20037;-73
2021/06/11 10:37:39;;;;;;;6.75;6.30;;;29.10;95.30;;;;;;5074062;28;20017;-70
2021/06/11 10:40:21;;;;;;;6.35;5.85;;;29.50;94.50;;;;;;5068892;28;20076;-70
2021/06/11 10:42:46;;;;;;;6.63;6.15;;;30.00;94.30;;;;;;5048397;28;20091;-71
2021/06/11 10:45:13;;;;;;;7.63;7.03;;;30.60;91.60;;;;;;5043248;28;20441;-70
2021/06/11 10:47:52;;;;;;;7.30;6.60;;;30.10;90.70;;;;;;5042969;28;20036;-71
2021/06/11 10:50:32;;;;;;;9.35;6.85;;;29.20;92.80;;;;;;5049460;28;20041;-69
2021/06/11 10:53:12;;;;;;;8.30;7.43;;;28.80;91.70;;;;;;5061304;28;20029;-69
2021/06/11 10:55:49;;;;;;;7.93;7.22;;;28.50;91.80;;;;;;5056858;28;20093;-69
2021/06/11 10:58:15;;;;;;;7.88;7.18;;;28.50;90.90;;;;;;5055534;28;20091;-70
2021/06/11 11:00:41;;;;;;;8.38;7.78;;;28.30;92.10;;;;;;5054699;28;20029;-70
2021/06/11 11:03:22;;;;;;;7.75;7.05;;;28.40;91.70;;;;;;5055133;28;20033;-70
2021/06/11 11:05:48;;;;;;;7.50;6.95;;;27.60;92.30;;;;;;5051635;28;20050;-70
2021/06/11 11:08:14;;;;;;;7.57;6.88;;;27.00;94.80;;;;;;5054503;28;20425;-70
2021/06/11 11:10:51;;;;;;;7.53;6.82;;;26.50;96.50;;;;;;5053171;28;20394;-70
2021/06/11 11:13:17;;;;;;;7.47;6.85;;;26.50;96.90;;;;;;5053969;28;20025;-69
2021/06/11 11:15:46;;;;;;;10.68;9.77;;;26.10;97.30;;;;;;5053935;28;20096;-71
2021/06/11 11:18:13;;;;;;;8.85;7.90;;;26.50;95.50;;;;;;5054205;28;20025;-69
2021/06/11 11:20:41;;;;;;;7.07;6.53;;;26.70;96.00;;;;;;5052921;28;20162;-70
2021/06/11 11:23:08;;;;;;;8.65;6.93;;;26.40;97.50;;;;;;5050041;28;20025;-71
2021/06/11 11:25:35;;;;;;;8.85;7.40;;;26.00;97.00;;;;;;5053471;28;20078;-71
2021/06/11 11:28:03;;;;;;;9.75;7.90;;;26.00;98.90;;;;;;5053525;28;20017;-70
2021/06/11 11:30:30;;;;;;;8.20;7.40;;;26.60;98.70;;;;;;5052724;28;20024;-70
2021/06/11 11:32:57;;;;;;;9.00;7.30;;;27.20;96.10;;;;;;5053584;28;20104;-70
2021/06/11 11:35:28;;;;;;;8.23;7.45;;;27.50;96.50;;;;;;5035303;28;20482;-69
2021/06/11 11:37:55;;;;;;;9.00;7.40;;;28.10;95.20;;;;;;5053588;28;20032;-70
2021/06/11 11:40:21;;;;;;;8.50;7.63;;;28.30;91.70;;;;;;5052903;28;20021;-70
2021/06/11 11:42:47;;;;;;;6.90;6.40;;;28.20;92.30;;;;;;5035638;28;20123;-71
2021/06/11 11:45:13;;;;;;;8.95;7.55;;;28.40;93.70;;;;;;5053303;28;20100;-70
2021/06/11 11:47:39;;;;;;;8.98;7.20;;;28.60;92.20;;;;;;5052880;28;20021;-70
2021/06/11 11:50:05;;;;;;;7.90;7.10;;;28.50;92.40;;;;;;5052153;28;20487;-69
2021/06/11 11:52:32;;;;;;;7.88;7.25;;;28.50;92.10;;;;;;5052755;28;20035;-71
2021/06/11 11:54:58;;;;;;;7.60;6.90;;;28.80;92.60;;;;;;5053376;28;20044;-70
2021/06/11 11:57:24;;;;;;;6.93;6.43;;;29.20;90.90;;;;;;5052927;28;20144;-70
2021/06/11 11:59:50;;;;;;;7.78;7.13;;;29.60;90.80;;;;;;5051660;28;20140;-70
2021/06/11 12:02:15;;;;;;;9.20;6.55;;;29.80;92.10;;;;;;5053184;28;20025;-70
2021/06/11 12:04:41;;;;;;;8.30;6.43;;;29.90;90.50;;;;;;5052701;28;20025;-70
2021/06/11 12:07:07;;;;;;;7.43;6.72;;;30.30;91.00;;;;;;5052675;28;20471;-70
2021/06/11 12:09:32;;;;;;;5.78;5.43;;;29.90;90.20;;;;;;5051971;28;20084;-70
2021/06/11 12:11:59;;;;;;;6.95;6.28;;;28.80;92.00;;;;;;5052588;28;20036;-70
2021/06/11 12:14:24;;;;;;;9.60;7.05;;;28.50;92.90;;;;;;5052532;28;20017;-70
2021/06/11 12:16:53;;;;;;;7.95;7.13;;;28.20;93.20;;;;;;5052070;28;20486;-70
2021/06/11 12:19:18;;;;;;;8.25;7.30;;;28.20;92.60;;;;;;5018677;28;20155;-70
2021/06/11 12:21:44;;;;;;;9.15;6.97;;;27.90;93.00;;;;;;5031383;28;20104;-71
2021/06/11 12:24:10;;;;;;;7.78;7.10;;;27.60;93.80;;;;;;5032964;28;20033;-70
2021/06/11 12:26:36;;;;;;;9.40;7.68;;;27.30;91.50;;;;;;5032232;28;20025;-70
2021/06/11 12:29:02;;;;;;;8.02;7.25;;;27.50;94.00;;;;;;5032941;28;20439;-71
2021/06/11 12:31:30;;;;;;;7.60;7.10;;;27.40;94.50;;;;;;5031604;28;20033;-71
2021/06/11 12:33:55;;;;;;;7.32;6.63;;;27.50;94.90;;;;;;5032545;28;20029;-70
2021/06/11 12:36:21;;;;;;;6.30;5.90;;;27.90;94.20;;;;;;5047376;28;20812;-70
2021/06/11 12:38:47;;;;;;;6.80;6.30;;;28.60;93.30;;;;;;5052713;28;20092;-70
2021/06/11 12:41:15;;;;;;;9.82;6.95;;;29.00;91.70;;;;;;5051757;28;20033;-70
2021/06/11 12:46:25;;;;;;;7.25;6.50;;;29.20;88.30;;;;;;5051949;28;20113;-70